Airfield :
LOGIN :

Register | Disclaimer

   EN    FR    IT 

 










Legend :    VFR   Marginal VFR   IFR   Intensive IFR   Very Intensive IFR
Visi :
Ceiling :
>= 8 km
>= 3000ft
5 to 8 km
1000 to 3000 ft
1500m to 5 km
500 to 1000 ft
800 to 1500m
200 to 500 ft
< 800m
< 200 ft
Symbols :   Thunderstorms  Fog  Heavy snow  Heavy precipitations  Wind > 20 kt
SIGMETs :     Misc.  Thunderstorms  Icing  Turbulence  Mountain Waves  Volcanic Ashes






- Airport Elevation : 102 ft
- IATA code : EXT


EGTE - Exeter

CURRENT METAR :
  • 150920Z VRB03KT 0900 R26/1100 FG NSC 11/11 Q1003

EXPIRED METARs :
  • 150850Z VRB02KT 0350 R26/0550 FG NSC 10/10 Q1003
  • 150820Z VRB02KT 0200 R26/0350 FG NSC 09/09 Q1003
  • 150750Z VRB02KT 0150 R26/0275 FG NSC 09/09 Q1003
  • 150720Z VRB01KT 0200 R26/0300 FG NSC 09/09 Q1003
  • 150650Z 10003KT 0250 R26/0400 FG NSC 09/09 Q1003

TAF AMD TAF EGTE
Valid from the 15 at 09:00 until the 15 at 18:00 UTC


150906Z 1509/1518 VRB03KT 0300 FG FEW003
BECMG 1509/1512 9999 NSW
BECMG 1511/1514 26010KT
PROB40
TEMPO 1511/1515 8000 SHRA BKN012



MET'MAP, your aeronautical weather chart ! - Copyright ORBIFLY December 2007 - Disclaimer

ORBIFLY MET'MAP TEAM :

Programming & Development : Alexandra Zaïnal
Concept & Development : Baudouin d'Aumeries
Co-Development & Prog : Marc-Olivier Méhu
Technical & hardware support : Manuel Goepfert

Contact : metmap@orbifly.com




SOURCES & CREDITS :

   NOAA